sensor_id;sensor_type;location;lat;lon;timestamp;P1;durP1;ratioP1;P2;durP2;ratioP2
51838;SDS011;37886;53.174;6.368;2022-10-23T00:01:33;36.25;;;15.57;;
51838;SDS011;37886;53.174;6.368;2022-10-23T00:04:05;50.97;;;16.02;;
51838;SDS011;37886;53.174;6.368;2022-10-23T00:06:42;44.17;;;16.33;;
51838;SDS011;37886;53.174;6.368;2022-10-23T00:09:09;35.15;;;15.73;;
51838;SDS011;37886;53.174;6.368;2022-10-23T00:11:37;42.47;;;15.70;;
51838;SDS011;37886;53.174;6.368;2022-10-23T00:14:04;44.22;;;17.95;;
51838;SDS011;37886;53.174;6.368;2022-10-23T00:16:30;29.08;;;14.90;;
51838;SDS011;37886;53.174;6.368;2022-10-23T00:18:56;54.60;;;18.23;;
51838;SDS011;37886;53.174;6.368;2022-10-23T00:21:23;53.42;;;17.55;;
51838;SDS011;37886;53.174;6.368;2022-10-23T00:23:49;44.35;;;18.08;;
51838;SDS011;37886;53.174;6.368;2022-10-23T00:26:15;42.30;;;17.35;;
51838;SDS011;37886;53.174;6.368;2022-10-23T00:28:42;42.90;;;17.65;;
51838;SDS011;37886;53.174;6.368;2022-10-23T00:31:08;47.22;;;18.45;;
51838;SDS011;37886;53.174;6.368;2022-10-23T00:33:34;48.83;;;18.27;;
51838;SDS011;37886;53.174;6.368;2022-10-23T00:36:02;50.40;;;19.30;;
51838;SDS011;37886;53.174;6.368;2022-10-23T00:38:29;45.70;;;18.85;;
51838;SDS011;37886;53.174;6.368;2022-10-23T00:40:55;50.72;;;20.38;;
51838;SDS011;37886;53.174;6.368;2022-10-23T00:43:22;44.50;;;18.13;;
51838;SDS011;37886;53.174;6.368;2022-10-23T00:45:50;40.53;;;18.27;;
51838;SDS011;37886;53.174;6.368;2022-10-23T00:48:16;38.63;;;17.63;;
51838;SDS011;37886;53.174;6.368;2022-10-23T00:50:42;38.20;;;16.98;;
51838;SDS011;37886;53.174;6.368;2022-10-23T00:53:11;37.45;;;16.15;;
51838;SDS011;37886;53.174;6.368;2022-10-23T00:55:37;37.28;;;17.13;;
51838;SDS011;37886;53.174;6.368;2022-10-23T00:58:09;38.38;;;17.25;;
51838;SDS011;37886;53.174;6.368;2022-10-23T01:00:52;38.03;;;15.93;;
51838;SDS011;37886;53.174;6.368;2022-10-23T01:03:20;30.67;;;15.82;;
51838;SDS011;37886;53.174;6.368;2022-10-23T01:05:52;52.30;;;18.17;;
51838;SDS011;37886;53.174;6.368;2022-10-23T01:08:34;50.55;;;19.60;;
51838;SDS011;37886;53.174;6.368;2022-10-23T01:11:11;51.00;;;18.40;;
51838;SDS011;37886;53.174;6.368;2022-10-23T01:13:46;52.25;;;20.08;;
51838;SDS011;37886;53.174;6.368;2022-10-23T01:16:26;42.63;;;19.67;;
51838;SDS011;37886;53.174;6.368;2022-10-23T01:19:10;52.00;;;21.13;;
51838;SDS011;37886;53.174;6.368;2022-10-23T01:27:51;51.25;;;23.38;;
51838;SDS011;37886;53.174;6.368;2022-10-23T01:30:27;70.38;;;27.00;;
51838;SDS011;37886;53.174;6.368;2022-10-23T01:32:55;68.15;;;28.02;;
51838;SDS011;37886;53.174;6.368;2022-10-23T01:35:36;60.08;;;27.70;;
51838;SDS011;37886;53.174;6.368;2022-10-23T01:40:43;64.95;;;27.50;;
51838;SDS011;37886;53.174;6.368;2022-10-23T01:43:19;73.75;;;32.03;;
51838;SDS011;37886;53.174;6.368;2022-10-23T01:45:54;78.47;;;33.70;;
51838;SDS011;37886;53.174;6.368;2022-10-23T01:48:23;75.68;;;32.13;;
51838;SDS011;37886;53.174;6.368;2022-10-23T01:50:53;76.28;;;31.42;;
51838;SDS011;37886;53.174;6.368;2022-10-23T01:53:22;93.30;;;33.72;;
51838;SDS011;37886;53.174;6.368;2022-10-23T01:55:54;77.50;;;32.50;;
51838;SDS011;37886;53.174;6.368;2022-10-23T01:58:23;78.22;;;32.40;;
51838;SDS011;37886;53.174;6.368;2022-10-23T02:00:50;82.82;;;32.65;;
51838;SDS011;37886;53.174;6.368;2022-10-23T02:03:18;87.80;;;32.05;;
51838;SDS011;37886;53.174;6.368;2022-10-23T02:05:45;75.07;;;31.58;;
51838;SDS011;37886;53.174;6.368;2022-10-23T02:08:11;80.32;;;32.42;;
51838;SDS011;37886;53.174;6.368;2022-10-23T02:13:20;83.72;;;34.25;;
51838;SDS011;37886;53.174;6.368;2022-10-23T02:15:57;72.97;;;31.17;;
51838;SDS011;37886;53.174;6.368;2022-10-23T02:18:45;69.53;;;31.02;;
51838;SDS011;37886;53.174;6.368;2022-10-23T02:21:24;76.05;;;31.88;;
51838;SDS011;37886;53.174;6.368;2022-10-23T02:23:56;65.50;;;28.98;;
51838;SDS011;37886;53.174;6.368;2022-10-23T02:26:29;73.70;;;31.35;;
51838;SDS011;37886;53.174;6.368;2022-10-23T02:29:11;67.00;;;30.77;;
51838;SDS011;37886;53.174;6.368;2022-10-23T02:31:47;67.53;;;32.15;;
51838;SDS011;37886;53.174;6.368;2022-10-23T02:34:13;66.28;;;30.65;;
51838;SDS011;37886;53.174;6.368;2022-10-23T02:36:39;82.55;;;34.08;;
51838;SDS011;37886;53.174;6.368;2022-10-23T02:39:05;68.95;;;31.42;;
51838;SDS011;37886;53.174;6.368;2022-10-23T02:41:39;63.33;;;29.15;;
51838;SDS011;37886;53.174;6.368;2022-10-23T02:52:50;82.80;;;32.00;;
51838;SDS011;37886;53.174;6.368;2022-10-23T02:58:03;57.05;;;30.30;;
51838;SDS011;37886;53.174;6.368;2022-10-23T03:00:35;78.43;;;29.75;;
51838;SDS011;37886;53.174;6.368;2022-10-23T03:03:10;79.88;;;29.77;;
51838;SDS011;37886;53.174;6.368;2022-10-23T03:05:43;47.28;;;25.80;;
51838;SDS011;37886;53.174;6.368;2022-10-23T03:08:10;55.42;;;26.33;;
51838;SDS011;37886;53.174;6.368;2022-10-23T03:10:38;55.42;;;27.83;;
51838;SDS011;37886;53.174;6.368;2022-10-23T03:13:04;61.38;;;28.63;;
51838;SDS011;37886;53.174;6.368;2022-10-23T03:15:30;53.00;;;26.48;;
51838;SDS011;37886;53.174;6.368;2022-10-23T03:17:56;69.43;;;28.23;;
51838;SDS011;37886;53.174;6.368;2022-10-23T03:20:21;64.50;;;27.85;;
51838;SDS011;37886;53.174;6.368;2022-10-23T03:22:47;63.50;;;26.60;;
51838;SDS011;37886;53.174;6.368;2022-10-23T03:25:13;46.75;;;24.38;;
51838;SDS011;37886;53.174;6.368;2022-10-23T03:27:39;61.83;;;26.15;;
51838;SDS011;37886;53.174;6.368;2022-10-23T03:30:04;58.22;;;26.45;;
51838;SDS011;37886;53.174;6.368;2022-10-23T03:32:31;57.30;;;27.15;;
51838;SDS011;37886;53.174;6.368;2022-10-23T03:34:57;67.20;;;28.55;;
51838;SDS011;37886;53.174;6.368;2022-10-23T03:37:22;73.60;;;29.55;;
51838;SDS011;37886;53.174;6.368;2022-10-23T03:39:48;64.75;;;29.23;;
51838;SDS011;37886;53.174;6.368;2022-10-23T03:42:14;67.30;;;28.70;;
51838;SDS011;37886;53.174;6.368;2022-10-23T03:44:40;82.57;;;32.28;;
51838;SDS011;37886;53.174;6.368;2022-10-23T03:47:06;68.82;;;29.77;;
51838;SDS011;37886;53.174;6.368;2022-10-23T03:49:34;92.72;;;31.77;;
51838;SDS011;37886;53.174;6.368;2022-10-23T03:51:59;70.45;;;31.10;;
51838;SDS011;37886;53.174;6.368;2022-10-23T03:54:25;79.47;;;31.40;;
51838;SDS011;37886;53.174;6.368;2022-10-23T03:56:52;67.43;;;29.98;;
51838;SDS011;37886;53.174;6.368;2022-10-23T03:59:18;75.00;;;33.05;;
51838;SDS011;37886;53.174;6.368;2022-10-23T04:01:44;85.03;;;34.00;;
51838;SDS011;37886;53.174;6.368;2022-10-23T04:04:10;60.20;;;30.45;;
51838;SDS011;37886;53.174;6.368;2022-10-23T04:06:36;81.75;;;36.53;;
51838;SDS011;37886;53.174;6.368;2022-10-23T04:09:03;88.43;;;35.92;;
51838;SDS011;37886;53.174;6.368;2022-10-23T04:11:29;82.35;;;35.58;;
51838;SDS011;37886;53.174;6.368;2022-10-23T04:13:55;75.68;;;34.40;;
51838;SDS011;37886;53.174;6.368;2022-10-23T04:16:21;121.95;;;40.72;;
51838;SDS011;37886;53.174;6.368;2022-10-23T04:18:48;101.07;;;40.47;;
51838;SDS011;37886;53.174;6.368;2022-10-23T04:21:14;107.93;;;41.03;;
51838;SDS011;37886;53.174;6.368;2022-10-23T04:23:40;94.68;;;38.88;;
51838;SDS011;37886;53.174;6.368;2022-10-23T04:26:06;78.45;;;35.35;;
51838;SDS011;37886;53.174;6.368;2022-10-23T04:28:32;82.97;;;37.08;;
51838;SDS011;37886;53.174;6.368;2022-10-23T04:30:58;126.30;;;36.80;;
51838;SDS011;37886;53.174;6.368;2022-10-23T04:33:24;114.53;;;36.50;;
51838;SDS011;37886;53.174;6.368;2022-10-23T04:35:50;96.53;;;35.40;;
51838;SDS011;37886;53.174;6.368;2022-10-23T04:38:15;95.45;;;36.88;;
51838;SDS011;37886;53.174;6.368;2022-10-23T04:40:41;123.22;;;42.78;;
51838;SDS011;37886;53.174;6.368;2022-10-23T04:43:07;77.32;;;35.47;;
51838;SDS011;37886;53.174;6.368;2022-10-23T04:45:32;97.25;;;38.60;;
51838;SDS011;37886;53.174;6.368;2022-10-23T04:47:58;94.43;;;39.40;;
51838;SDS011;37886;53.174;6.368;2022-10-23T04:50:24;124.93;;;41.08;;
51838;SDS011;37886;53.174;6.368;2022-10-23T04:52:53;130.25;;;40.15;;
51838;SDS011;37886;53.174;6.368;2022-10-23T04:55:22;83.13;;;35.38;;
51838;SDS011;37886;53.174;6.368;2022-10-23T04:57:49;128.07;;;41.83;;
51838;SDS011;37886;53.174;6.368;2022-10-23T05:00:15;120.88;;;44.85;;
51838;SDS011;37886;53.174;6.368;2022-10-23T05:02:42;102.28;;;32.35;;
51838;SDS011;37886;53.174;6.368;2022-10-23T05:05:08;40.35;;;18.88;;
51838;SDS011;37886;53.174;6.368;2022-10-23T05:07:34;35.42;;;18.70;;
51838;SDS011;37886;53.174;6.368;2022-10-23T05:10:00;91.25;;;32.75;;
51838;SDS011;37886;53.174;6.368;2022-10-23T05:12:27;100.82;;;39.38;;
51838;SDS011;37886;53.174;6.368;2022-10-23T05:14:53;104.15;;;42.28;;
51838;SDS011;37886;53.174;6.368;2022-10-23T05:17:20;118.65;;;42.58;;
51838;SDS011;37886;53.174;6.368;2022-10-23T05:22:18;108.60;;;43.75;;
51838;SDS011;37886;53.174;6.368;2022-10-23T05:24:47;140.50;;;47.65;;
51838;SDS011;37886;53.174;6.368;2022-10-23T05:27:13;114.22;;;46.33;;
51838;SDS011;37886;53.174;6.368;2022-10-23T05:29:38;139.90;;;47.30;;
51838;SDS011;37886;53.174;6.368;2022-10-23T05:32:04;128.27;;;47.78;;
51838;SDS011;37886;53.174;6.368;2022-10-23T05:34:33;134.07;;;48.85;;
51838;SDS011;37886;53.174;6.368;2022-10-23T05:37:01;115.70;;;47.60;;
51838;SDS011;37886;53.174;6.368;2022-10-23T05:39:28;127.03;;;46.33;;
51838;SDS011;37886;53.174;6.368;2022-10-23T05:41:53;115.60;;;46.70;;
51838;SDS011;37886;53.174;6.368;2022-10-23T05:44:19;119.68;;;47.85;;
51838;SDS011;37886;53.174;6.368;2022-10-23T05:46:45;139.45;;;48.30;;
51838;SDS011;37886;53.174;6.368;2022-10-23T05:49:11;125.82;;;50.78;;
51838;SDS011;37886;53.174;6.368;2022-10-23T05:51:38;115.10;;;48.63;;
51838;SDS011;37886;53.174;6.368;2022-10-23T05:54:04;122.53;;;49.78;;
51838;SDS011;37886;53.174;6.368;2022-10-23T05:56:36;129.80;;;48.33;;
51838;SDS011;37886;53.174;6.368;2022-10-23T05:59:03;136.18;;;49.20;;
51838;SDS011;37886;53.174;6.368;2022-10-23T06:01:29;125.65;;;46.78;;
51838;SDS011;37886;53.174;6.368;2022-10-23T06:03:55;132.02;;;49.53;;
51838;SDS011;37886;53.174;6.368;2022-10-23T06:06:23;114.18;;;46.67;;
51838;SDS011;37886;53.174;6.368;2022-10-23T06:08:49;137.48;;;49.00;;
51838;SDS011;37886;53.174;6.368;2022-10-23T06:11:14;127.13;;;46.53;;
51838;SDS011;37886;53.174;6.368;2022-10-23T06:13:44;142.45;;;48.30;;
51838;SDS011;37886;53.174;6.368;2022-10-23T06:16:11;125.68;;;47.72;;
51838;SDS011;37886;53.174;6.368;2022-10-23T06:18:40;129.27;;;47.60;;
51838;SDS011;37886;53.174;6.368;2022-10-23T06:21:06;117.95;;;46.78;;
51838;SDS011;37886;53.174;6.368;2022-10-23T06:23:33;120.03;;;47.17;;
51838;SDS011;37886;53.174;6.368;2022-10-23T06:26:00;140.38;;;50.17;;
51838;SDS011;37886;53.174;6.368;2022-10-23T06:28:26;128.07;;;48.72;;
51838;SDS011;37886;53.174;6.368;2022-10-23T06:30:51;125.43;;;46.15;;
51838;SDS011;37886;53.174;6.368;2022-10-23T06:33:17;141.93;;;49.42;;
51838;SDS011;37886;53.174;6.368;2022-10-23T06:35:43;126.90;;;46.00;;
51838;SDS011;37886;53.174;6.368;2022-10-23T06:38:09;130.40;;;45.50;;
51838;SDS011;37886;53.174;6.368;2022-10-23T06:40:35;127.20;;;47.65;;
51838;SDS011;37886;53.174;6.368;2022-10-23T06:43:02;100.72;;;42.50;;
51838;SDS011;37886;53.174;6.368;2022-10-23T06:45:28;105.05;;;45.63;;
51838;SDS011;37886;53.174;6.368;2022-10-23T06:47:54;121.93;;;46.83;;
51838;SDS011;37886;53.174;6.368;2022-10-23T06:50:20;105.00;;;43.10;;
51838;SDS011;37886;53.174;6.368;2022-10-23T06:52:45;134.35;;;47.88;;
51838;SDS011;37886;53.174;6.368;2022-10-23T06:55:11;116.47;;;45.47;;
51838;SDS011;37886;53.174;6.368;2022-10-23T06:57:37;106.07;;;45.25;;
51838;SDS011;37886;53.174;6.368;2022-10-23T07:00:03;99.10;;;44.40;;
51838;SDS011;37886;53.174;6.368;2022-10-23T07:02:29;110.20;;;44.33;;
51838;SDS011;37886;53.174;6.368;2022-10-23T07:04:55;108.32;;;43.90;;
51838;SDS011;37886;53.174;6.368;2022-10-23T07:07:20;113.30;;;45.00;;
51838;SDS011;37886;53.174;6.368;2022-10-23T07:09:46;108.50;;;45.33;;
51838;SDS011;37886;53.174;6.368;2022-10-23T07:12:11;97.70;;;41.53;;
51838;SDS011;37886;53.174;6.368;2022-10-23T07:14:37;111.70;;;45.67;;
51838;SDS011;37886;53.174;6.368;2022-10-23T07:17:03;98.85;;;43.60;;
51838;SDS011;37886;53.174;6.368;2022-10-23T07:19:28;89.05;;;40.58;;
51838;SDS011;37886;53.174;6.368;2022-10-23T07:21:54;105.47;;;45.30;;
51838;SDS011;37886;53.174;6.368;2022-10-23T07:24:20;101.32;;;41.20;;
51838;SDS011;37886;53.174;6.368;2022-10-23T07:26:46;95.35;;;41.67;;
51838;SDS011;37886;53.174;6.368;2022-10-23T07:29:11;106.70;;;42.70;;
51838;SDS011;37886;53.174;6.368;2022-10-23T07:31:37;92.47;;;39.55;;
51838;SDS011;37886;53.174;6.368;2022-10-23T07:34:03;81.15;;;39.22;;
51838;SDS011;37886;53.174;6.368;2022-10-23T07:36:30;87.68;;;37.70;;
51838;SDS011;37886;53.174;6.368;2022-10-23T07:38:56;75.72;;;35.53;;
51838;SDS011;37886;53.174;6.368;2022-10-23T07:41:22;92.68;;;38.80;;
51838;SDS011;37886;53.174;6.368;2022-10-23T07:43:47;89.13;;;38.50;;
51838;SDS011;37886;53.174;6.368;2022-10-23T07:46:13;75.65;;;36.28;;
51838;SDS011;37886;53.174;6.368;2022-10-23T07:48:39;81.45;;;36.78;;
51838;SDS011;37886;53.174;6.368;2022-10-23T07:51:06;81.85;;;35.58;;
51838;SDS011;37886;53.174;6.368;2022-10-23T07:53:35;84.22;;;35.30;;
51838;SDS011;37886;53.174;6.368;2022-10-23T07:56:09;78.65;;;35.72;;
51838;SDS011;37886;53.174;6.368;2022-10-23T07:58:41;65.43;;;30.75;;
51838;SDS011;37886;53.174;6.368;2022-10-23T08:01:14;70.15;;;33.63;;
51838;SDS011;37886;53.174;6.368;2022-10-23T08:03:43;74.43;;;32.75;;
51838;SDS011;37886;53.174;6.368;2022-10-23T08:06:08;74.90;;;34.50;;
51838;SDS011;37886;53.174;6.368;2022-10-23T08:08:34;73.28;;;33.28;;
51838;SDS011;37886;53.174;6.368;2022-10-23T08:11:00;70.15;;;33.22;;
51838;SDS011;37886;53.174;6.368;2022-10-23T08:13:26;66.80;;;32.85;;
51838;SDS011;37886;53.174;6.368;2022-10-23T08:15:52;70.45;;;32.35;;
51838;SDS011;37886;53.174;6.368;2022-10-23T08:18:18;61.20;;;31.08;;
51838;SDS011;37886;53.174;6.368;2022-10-23T08:20:44;64.35;;;30.25;;
51838;SDS011;37886;53.174;6.368;2022-10-23T08:23:12;56.22;;;29.15;;
51838;SDS011;37886;53.174;6.368;2022-10-23T08:25:41;58.42;;;29.00;;
51838;SDS011;37886;53.174;6.368;2022-10-23T08:28:07;66.55;;;30.70;;
51838;SDS011;37886;53.174;6.368;2022-10-23T08:30:33;65.30;;;29.17;;
51838;SDS011;37886;53.174;6.368;2022-10-23T08:33:01;62.72;;;28.92;;
51838;SDS011;37886;53.174;6.368;2022-10-23T08:35:28;58.10;;;28.05;;
51838;SDS011;37886;53.174;6.368;2022-10-23T08:37:54;53.80;;;29.27;;
51838;SDS011;37886;53.174;6.368;2022-10-23T08:40:23;57.85;;;29.15;;
51838;SDS011;37886;53.174;6.368;2022-10-23T08:42:58;56.47;;;26.77;;
51838;SDS011;37886;53.174;6.368;2022-10-23T08:45:38;63.25;;;27.80;;
51838;SDS011;37886;53.174;6.368;2022-10-23T08:48:19;47.72;;;26.58;;
51838;SDS011;37886;53.174;6.368;2022-10-23T08:51:05;48.03;;;25.38;;
51838;SDS011;37886;53.174;6.368;2022-10-23T08:56:52;40.80;;;23.52;;
51838;SDS011;37886;53.174;6.368;2022-10-23T08:59:08;44.97;;;24.27;;
51838;SDS011;37886;53.174;6.368;2022-10-23T09:02:04;40.47;;;22.10;;
51838;SDS011;37886;53.174;6.368;2022-10-23T09:04:49;40.90;;;22.00;;
51838;SDS011;37886;53.174;6.368;2022-10-23T09:12:25;35.13;;;21.35;;
51838;SDS011;37886;53.174;6.368;2022-10-23T09:15:04;37.30;;;20.45;;
51838;SDS011;37886;53.174;6.368;2022-10-23T09:18:11;31.05;;;19.52;;
51838;SDS011;37886;53.174;6.368;2022-10-23T09:20:40;36.63;;;18.95;;
51838;SDS011;37886;53.174;6.368;2022-10-23T09:23:18;45.00;;;19.25;;
51838;SDS011;37886;53.174;6.368;2022-10-23T09:25:46;32.72;;;19.58;;
51838;SDS011;37886;53.174;6.368;2022-10-23T09:28:23;36.13;;;18.33;;
51838;SDS011;37886;53.174;6.368;2022-10-23T09:30:53;33.92;;;17.33;;
51838;SDS011;37886;53.174;6.368;2022-10-23T09:33:33;31.77;;;16.57;;
51838;SDS011;37886;53.174;6.368;2022-10-23T09:36:05;25.50;;;15.40;;
51838;SDS011;37886;53.174;6.368;2022-10-23T09:41:26;34.53;;;14.98;;
51838;SDS011;37886;53.174;6.368;2022-10-23T09:46:35;26.42;;;13.98;;
51838;SDS011;37886;53.174;6.368;2022-10-23T09:49:01;23.80;;;13.48;;
51838;SDS011;37886;53.174;6.368;2022-10-23T09:51:27;21.42;;;13.00;;
51838;SDS011;37886;53.174;6.368;2022-10-23T09:53:54;18.00;;;12.00;;
51838;SDS011;37886;53.174;6.368;2022-10-23T09:56:27;17.25;;;11.63;;
51838;SDS011;37886;53.174;6.368;2022-10-23T09:58:56;21.45;;;11.70;;
51838;SDS011;37886;53.174;6.368;2022-10-23T10:01:26;20.83;;;10.57;;
51838;SDS011;37886;53.174;6.368;2022-10-23T10:03:54;17.48;;;10.50;;
51838;SDS011;37886;53.174;6.368;2022-10-23T10:06:22;20.92;;;11.40;;
51838;SDS011;37886;53.174;6.368;2022-10-23T10:08:51;19.25;;;11.15;;
51838;SDS011;37886;53.174;6.368;2022-10-23T10:25:10;14.23;;;7.63;;
51838;SDS011;37886;53.174;6.368;2022-10-23T10:30:24;17.35;;;7.00;;
51838;SDS011;37886;53.174;6.368;2022-10-23T10:33:04;12.25;;;6.38;;
51838;SDS011;37886;53.174;6.368;2022-10-23T10:35:56;13.93;;;5.97;;
51838;SDS011;37886;53.174;6.368;2022-10-23T10:41:25;21.00;;;5.95;;
51838;SDS011;37886;53.174;6.368;2022-10-23T10:46:55;14.05;;;6.10;;
51838;SDS011;37886;53.174;6.368;2022-10-23T10:49:27;10.23;;;5.18;;
51838;SDS011;37886;53.174;6.368;2022-10-23T10:52:06;12.38;;;5.95;;
51838;SDS011;37886;53.174;6.368;2022-10-23T10:54:39;12.30;;;6.18;;
51838;SDS011;37886;53.174;6.368;2022-10-23T10:57:16;9.80;;;5.88;;
51838;SDS011;37886;53.174;6.368;2022-10-23T10:59:53;13.00;;;5.75;;
51838;SDS011;37886;53.174;6.368;2022-10-23T11:02:27;13.60;;;5.40;;
51838;SDS011;37886;53.174;6.368;2022-10-23T11:05:11;12.90;;;5.20;;
51838;SDS011;37886;53.174;6.368;2022-10-23T11:10:53;16.77;;;6.03;;
51838;SDS011;37886;53.174;6.368;2022-10-23T11:13:42;13.07;;;4.85;;
51838;SDS011;37886;53.174;6.368;2022-10-23T11:19:46;13.30;;;5.00;;
51838;SDS011;37886;53.174;6.368;2022-10-23T11:32:54;12.35;;;5.00;;
51838;SDS011;37886;53.174;6.368;2022-10-23T11:38:28;15.68;;;4.38;;
51838;SDS011;37886;53.174;6.368;2022-10-23T11:41:18;8.18;;;4.57;;
51838;SDS011;37886;53.174;6.368;2022-10-23T11:43:56;10.88;;;3.95;;
51838;SDS011;37886;53.174;6.368;2022-10-23T11:46:36;11.10;;;4.10;;
51838;SDS011;37886;53.174;6.368;2022-10-23T11:49:03;10.15;;;4.10;;
51838;SDS011;37886;53.174;6.368;2022-10-23T11:51:39;9.30;;;3.80;;
51838;SDS011;37886;53.174;6.368;2022-10-23T11:54:21;10.25;;;3.67;;
51838;SDS011;37886;53.174;6.368;2022-10-23T12:01:54;6.80;;;3.70;;
51838;SDS011;37886;53.174;6.368;2022-10-23T12:04:47;14.32;;;3.75;;
51838;SDS011;37886;53.174;6.368;2022-10-23T12:07:23;12.57;;;4.63;;
51838;SDS011;37886;53.174;6.368;2022-10-23T12:10:04;13.20;;;3.55;;
51838;SDS011;37886;53.174;6.368;2022-10-23T12:12:55;8.55;;;3.72;;
51838;SDS011;37886;53.174;6.368;2022-10-23T12:15:25;13.43;;;4.03;;
51838;SDS011;37886;53.174;6.368;2022-10-23T12:17:52;11.18;;;3.53;;
51838;SDS011;37886;53.174;6.368;2022-10-23T12:20:27;9.75;;;3.92;;
51838;SDS011;37886;53.174;6.368;2022-10-23T12:23:15;12.68;;;3.40;;
51838;SDS011;37886;53.174;6.368;2022-10-23T12:39:50;15.57;;;3.65;;
51838;SDS011;37886;53.174;6.368;2022-10-23T12:42:24;7.13;;;3.45;;
51838;SDS011;37886;53.174;6.368;2022-10-23T12:44:58;5.88;;;3.97;;
51838;SDS011;37886;53.174;6.368;2022-10-23T12:47:25;14.80;;;4.60;;
51838;SDS011;37886;53.174;6.368;2022-10-23T12:49:52;10.43;;;3.80;;
51838;SDS011;37886;53.174;6.368;2022-10-23T12:52:18;8.23;;;4.45;;
51838;SDS011;37886;53.174;6.368;2022-10-23T12:54:48;7.97;;;4.43;;
51838;SDS011;37886;53.174;6.368;2022-10-23T12:57:19;13.23;;;4.68;;
51838;SDS011;37886;53.174;6.368;2022-10-23T13:00:13;13.00;;;4.45;;
51838;SDS011;37886;53.174;6.368;2022-10-23T13:02:40;10.02;;;4.30;;
51838;SDS011;37886;53.174;6.368;2022-10-23T13:05:07;9.38;;;4.30;;
51838;SDS011;37886;53.174;6.368;2022-10-23T13:07:41;14.93;;;4.03;;
51838;SDS011;37886;53.174;6.368;2022-10-23T13:10:18;10.20;;;4.00;;
51838;SDS011;37886;53.174;6.368;2022-10-23T13:12:55;10.77;;;4.47;;
51838;SDS011;37886;53.174;6.368;2022-10-23T13:15:23;15.32;;;4.35;;
51838;SDS011;37886;53.174;6.368;2022-10-23T13:23:38;13.38;;;3.85;;
51838;SDS011;37886;53.174;6.368;2022-10-23T13:25:40;12.18;;;4.25;;
51838;SDS011;37886;53.174;6.368;2022-10-23T13:30:33;8.32;;;3.47;;
51838;SDS011;37886;53.174;6.368;2022-10-23T13:33:29;8.52;;;3.70;;
51838;SDS011;37886;53.174;6.368;2022-10-23T13:36:19;10.07;;;3.45;;
51838;SDS011;37886;53.174;6.368;2022-10-23T13:38:58;8.05;;;3.70;;
51838;SDS011;37886;53.174;6.368;2022-10-23T13:41:43;10.68;;;3.70;;
51838;SDS011;37886;53.174;6.368;2022-10-23T13:44:10;15.50;;;3.65;;
51838;SDS011;37886;53.174;6.368;2022-10-23T13:46:37;9.60;;;3.67;;
51838;SDS011;37886;53.174;6.368;2022-10-23T13:49:03;7.65;;;3.58;;
51838;SDS011;37886;53.174;6.368;2022-10-23T13:51:30;9.65;;;3.90;;
51838;SDS011;37886;53.174;6.368;2022-10-23T13:54:05;7.55;;;3.10;;
51838;SDS011;37886;53.174;6.368;2022-10-23T13:56:36;14.98;;;3.72;;
51838;SDS011;37886;53.174;6.368;2022-10-23T13:59:01;12.05;;;3.25;;
51838;SDS011;37886;53.174;6.368;2022-10-23T14:01:28;6.82;;;3.08;;
51838;SDS011;37886;53.174;6.368;2022-10-23T14:03:57;8.73;;;3.45;;
51838;SDS011;37886;53.174;6.368;2022-10-23T14:06:23;8.55;;;3.70;;
51838;SDS011;37886;53.174;6.368;2022-10-23T14:08:49;8.32;;;3.20;;
51838;SDS011;37886;53.174;6.368;2022-10-23T14:11:16;11.93;;;4.22;;
51838;SDS011;37886;53.174;6.368;2022-10-23T14:13:43;9.23;;;3.63;;
51838;SDS011;37886;53.174;6.368;2022-10-23T14:16:13;9.85;;;3.70;;
51838;SDS011;37886;53.174;6.368;2022-10-23T14:21:06;8.40;;;3.25;;
51838;SDS011;37886;53.174;6.368;2022-10-23T14:23:33;10.20;;;3.05;;
51838;SDS011;37886;53.174;6.368;2022-10-23T14:26:05;8.02;;;3.35;;
51838;SDS011;37886;53.174;6.368;2022-10-23T14:28:36;11.80;;;3.78;;
51838;SDS011;37886;53.174;6.368;2022-10-23T14:31:12;9.32;;;3.85;;
51838;SDS011;37886;53.174;6.368;2022-10-23T14:33:39;8.35;;;3.90;;
51838;SDS011;37886;53.174;6.368;2022-10-23T14:36:06;8.75;;;3.63;;
51838;SDS011;37886;53.174;6.368;2022-10-23T14:38:32;10.05;;;3.42;;
51838;SDS011;37886;53.174;6.368;2022-10-23T14:40:58;7.90;;;3.45;;
51838;SDS011;37886;53.174;6.368;2022-10-23T14:43:23;15.50;;;4.10;;
51838;SDS011;37886;53.174;6.368;2022-10-23T14:45:49;5.13;;;3.60;;
51838;SDS011;37886;53.174;6.368;2022-10-23T14:48:15;12.60;;;3.70;;
51838;SDS011;37886;53.174;6.368;2022-10-23T14:50:41;7.60;;;3.65;;
51838;SDS011;37886;53.174;6.368;2022-10-23T14:53:12;8.50;;;3.83;;
51838;SDS011;37886;53.174;6.368;2022-10-23T14:55:38;9.73;;;3.88;;
51838;SDS011;37886;53.174;6.368;2022-10-23T14:58:04;9.75;;;3.30;;
51838;SDS011;37886;53.174;6.368;2022-10-23T15:00:30;10.48;;;3.75;;
51838;SDS011;37886;53.174;6.368;2022-10-23T15:02:55;8.30;;;3.75;;
51838;SDS011;37886;53.174;6.368;2022-10-23T15:05:21;8.88;;;4.20;;
51838;SDS011;37886;53.174;6.368;2022-10-23T15:07:47;8.77;;;3.20;;
51838;SDS011;37886;53.174;6.368;2022-10-23T15:10:12;10.05;;;4.18;;
51838;SDS011;37886;53.174;6.368;2022-10-23T15:12:38;8.60;;;3.10;;
51838;SDS011;37886;53.174;6.368;2022-10-23T15:15:04;6.60;;;3.28;;
51838;SDS011;37886;53.174;6.368;2022-10-23T15:17:31;6.22;;;3.20;;
51838;SDS011;37886;53.174;6.368;2022-10-23T15:19:58;10.00;;;3.33;;
51838;SDS011;37886;53.174;6.368;2022-10-23T15:22:24;8.30;;;3.17;;
51838;SDS011;37886;53.174;6.368;2022-10-23T15:24:50;10.77;;;3.28;;
51838;SDS011;37886;53.174;6.368;2022-10-23T15:27:16;7.03;;;3.17;;
51838;SDS011;37886;53.174;6.368;2022-10-23T15:29:42;14.27;;;3.75;;
51838;SDS011;37886;53.174;6.368;2022-10-23T15:32:09;10.80;;;3.08;;
51838;SDS011;37886;53.174;6.368;2022-10-23T15:34:35;5.00;;;3.03;;
51838;SDS011;37886;53.174;6.368;2022-10-23T15:37:01;10.15;;;3.40;;
51838;SDS011;37886;53.174;6.368;2022-10-23T15:39:29;9.90;;;3.15;;
51838;SDS011;37886;53.174;6.368;2022-10-23T15:41:58;12.20;;;4.13;;
51838;SDS011;37886;53.174;6.368;2022-10-23T15:44:25;6.18;;;2.97;;
51838;SDS011;37886;53.174;6.368;2022-10-23T15:46:52;9.45;;;3.13;;
51838;SDS011;37886;53.174;6.368;2022-10-23T15:49:21;8.38;;;3.50;;
51838;SDS011;37886;53.174;6.368;2022-10-23T15:51:49;5.50;;;2.78;;
51838;SDS011;37886;53.174;6.368;2022-10-23T15:54:16;12.35;;;3.63;;
51838;SDS011;37886;53.174;6.368;2022-10-23T15:56:44;9.05;;;3.35;;
51838;SDS011;37886;53.174;6.368;2022-10-23T15:59:11;11.13;;;3.25;;
51838;SDS011;37886;53.174;6.368;2022-10-23T16:01:37;11.82;;;2.97;;
51838;SDS011;37886;53.174;6.368;2022-10-23T16:04:03;5.53;;;3.08;;
51838;SDS011;37886;53.174;6.368;2022-10-23T16:06:28;9.13;;;3.15;;
51838;SDS011;37886;53.174;6.368;2022-10-23T16:08:54;13.18;;;3.17;;
51838;SDS011;37886;53.174;6.368;2022-10-23T16:11:24;8.90;;;2.97;;
51838;SDS011;37886;53.174;6.368;2022-10-23T16:13:52;7.18;;;2.90;;
51838;SDS011;37886;53.174;6.368;2022-10-23T16:16:19;12.27;;;3.13;;
51838;SDS011;37886;53.174;6.368;2022-10-23T16:18:44;13.02;;;3.03;;
51838;SDS011;37886;53.174;6.368;2022-10-23T16:21:21;11.52;;;3.08;;
51838;SDS011;37886;53.174;6.368;2022-10-23T16:23:48;8.90;;;3.00;;
51838;SDS011;37886;53.174;6.368;2022-10-23T16:26:15;7.13;;;2.70;;
51838;SDS011;37886;53.174;6.368;2022-10-23T16:28:41;9.27;;;2.97;;
51838;SDS011;37886;53.174;6.368;2022-10-23T16:31:18;14.32;;;3.55;;